sensor_id;sensor_type;location;lat;lon;timestamp;P1;durP1;ratioP1;P2;durP2;ratioP2
18899;SDS011;9582;52.018;6.306;2023-04-01T00:01:42;7.53;;;2.70;;
18899;SDS011;9582;52.018;6.306;2023-04-01T00:04:08;4.30;;;2.77;;
18899;SDS011;9582;52.018;6.306;2023-04-01T00:06:35;5.97;;;2.37;;
18899;SDS011;9582;52.018;6.306;2023-04-01T00:09:01;5.57;;;2.70;;
18899;SDS011;9582;52.018;6.306;2023-04-01T00:11:28;6.50;;;2.80;;
18899;SDS011;9582;52.018;6.306;2023-04-01T00:13:56;6.00;;;2.50;;
18899;SDS011;9582;52.018;6.306;2023-04-01T00:16:23;4.70;;;2.70;;
18899;SDS011;9582;52.018;6.306;2023-04-01T00:18:49;5.10;;;2.60;;
18899;SDS011;9582;52.018;6.306;2023-04-01T00:21:16;5.33;;;2.77;;
18899;SDS011;9582;52.018;6.306;2023-04-01T00:23:43;6.40;;;2.80;;
18899;SDS011;9582;52.018;6.306;2023-04-01T00:26:10;6.80;;;2.63;;
18899;SDS011;9582;52.018;6.306;2023-04-01T00:28:39;4.43;;;2.50;;
18899;SDS011;9582;52.018;6.306;2023-04-01T00:31:08;6.00;;;2.50;;
18899;SDS011;9582;52.018;6.306;2023-04-01T00:33:36;7.00;;;2.40;;
18899;SDS011;9582;52.018;6.306;2023-04-01T00:36:06;2.30;;;2.10;;
18899;SDS011;9582;52.018;6.306;2023-04-01T00:38:34;5.73;;;2.67;;
18899;SDS011;9582;52.018;6.306;2023-04-01T00:41:01;5.90;;;2.43;;
18899;SDS011;9582;52.018;6.306;2023-04-01T00:43:28;5.43;;;2.40;;
18899;SDS011;9582;52.018;6.306;2023-04-01T00:45:55;4.23;;;2.10;;
18899;SDS011;9582;52.018;6.306;2023-04-01T00:48:24;2.80;;;1.57;;
18899;SDS011;9582;52.018;6.306;2023-04-01T00:50:56;3.87;;;1.90;;
18899;SDS011;9582;52.018;6.306;2023-04-01T00:53:27;3.93;;;2.00;;
18899;SDS011;9582;52.018;6.306;2023-04-01T00:55:56;2.90;;;2.00;;
18899;SDS011;9582;52.018;6.306;2023-04-01T00:58:27;3.23;;;1.90;;
18899;SDS011;9582;52.018;6.306;2023-04-01T01:00:57;4.07;;;1.70;;
18899;SDS011;9582;52.018;6.306;2023-04-01T01:03:27;3.37;;;2.37;;
18899;SDS011;9582;52.018;6.306;2023-04-01T01:06:00;3.17;;;2.20;;
18899;SDS011;9582;52.018;6.306;2023-04-01T01:11:35;3.63;;;2.50;;
18899;SDS011;9582;52.018;6.306;2023-04-01T01:14:07;6.03;;;2.67;;
18899;SDS011;9582;52.018;6.306;2023-04-01T01:16:44;5.07;;;3.00;;
18899;SDS011;9582;52.018;6.306;2023-04-01T01:19:24;6.30;;;2.80;;
18899;SDS011;9582;52.018;6.306;2023-04-01T01:22:06;5.03;;;3.03;;
18899;SDS011;9582;52.018;6.306;2023-04-01T01:24:50;5.27;;;3.00;;
18899;SDS011;9582;52.018;6.306;2023-04-01T01:27:25;5.77;;;3.17;;
18899;SDS011;9582;52.018;6.306;2023-04-01T01:30:06;3.97;;;3.07;;
18899;SDS011;9582;52.018;6.306;2023-04-01T01:32:52;6.17;;;3.20;;
18899;SDS011;9582;52.018;6.306;2023-04-01T01:35:30;5.73;;;3.47;;
18899;SDS011;9582;52.018;6.306;2023-04-01T01:38:03;7.17;;;3.80;;
18899;SDS011;9582;52.018;6.306;2023-04-01T01:40:34;5.47;;;3.33;;
18899;SDS011;9582;52.018;6.306;2023-04-01T01:43:06;5.37;;;3.80;;
18899;SDS011;9582;52.018;6.306;2023-04-01T01:45:36;6.57;;;4.10;;
18899;SDS011;9582;52.018;6.306;2023-04-01T01:48:08;6.70;;;4.30;;
18899;SDS011;9582;52.018;6.306;2023-04-01T01:50:37;7.57;;;4.77;;
18899;SDS011;9582;52.018;6.306;2023-04-01T01:53:09;7.73;;;4.83;;
18899;SDS011;9582;52.018;6.306;2023-04-01T01:55:37;6.93;;;4.50;;
18899;SDS011;9582;52.018;6.306;2023-04-01T01:58:07;10.70;;;5.17;;
18899;SDS011;9582;52.018;6.306;2023-04-01T02:00:39;8.47;;;5.63;;
18899;SDS011;9582;52.018;6.306;2023-04-01T02:03:08;10.93;;;6.03;;
18899;SDS011;9582;52.018;6.306;2023-04-01T02:05:35;11.23;;;6.43;;
18899;SDS011;9582;52.018;6.306;2023-04-01T02:08:09;8.17;;;5.80;;
18899;SDS011;9582;52.018;6.306;2023-04-01T02:10:40;12.27;;;6.60;;
18899;SDS011;9582;52.018;6.306;2023-04-01T02:13:11;10.60;;;6.23;;
18899;SDS011;9582;52.018;6.306;2023-04-01T02:15:44;10.37;;;7.23;;
18899;SDS011;9582;52.018;6.306;2023-04-01T02:18:14;10.07;;;6.23;;
18899;SDS011;9582;52.018;6.306;2023-04-01T02:20:43;12.03;;;6.97;;
18899;SDS011;9582;52.018;6.306;2023-04-01T02:23:12;14.13;;;7.17;;
18899;SDS011;9582;52.018;6.306;2023-04-01T02:25:40;11.90;;;6.83;;
18899;SDS011;9582;52.018;6.306;2023-04-01T02:28:08;11.83;;;7.83;;
18899;SDS011;9582;52.018;6.306;2023-04-01T02:30:38;12.17;;;7.07;;
18899;SDS011;9582;52.018;6.306;2023-04-01T02:33:07;14.93;;;7.70;;
18899;SDS011;9582;52.018;6.306;2023-04-01T02:35:35;13.67;;;8.67;;
18899;SDS011;9582;52.018;6.306;2023-04-01T02:38:02;14.83;;;8.50;;
18899;SDS011;9582;52.018;6.306;2023-04-01T02:40:40;15.67;;;8.50;;
18899;SDS011;9582;52.018;6.306;2023-04-01T02:43:07;11.00;;;7.40;;
18899;SDS011;9582;52.018;6.306;2023-04-01T02:45:34;10.77;;;7.53;;
18899;SDS011;9582;52.018;6.306;2023-04-01T02:48:01;12.30;;;7.30;;
18899;SDS011;9582;52.018;6.306;2023-04-01T02:50:28;8.33;;;6.67;;
18899;SDS011;9582;52.018;6.306;2023-04-01T02:52:54;9.93;;;7.20;;
18899;SDS011;9582;52.018;6.306;2023-04-01T02:55:21;12.00;;;7.77;;
18899;SDS011;9582;52.018;6.306;2023-04-01T02:57:49;10.23;;;7.10;;
18899;SDS011;9582;52.018;6.306;2023-04-01T03:00:16;9.20;;;6.87;;
18899;SDS011;9582;52.018;6.306;2023-04-01T03:02:43;6.67;;;5.30;;
18899;SDS011;9582;52.018;6.306;2023-04-01T03:05:09;8.67;;;5.30;;
18899;SDS011;9582;52.018;6.306;2023-04-01T03:07:37;7.67;;;4.97;;
18899;SDS011;9582;52.018;6.306;2023-04-01T03:10:04;5.67;;;4.70;;
18899;SDS011;9582;52.018;6.306;2023-04-01T03:12:32;6.37;;;4.60;;
18899;SDS011;9582;52.018;6.306;2023-04-01T03:15:03;8.50;;;4.83;;
18899;SDS011;9582;52.018;6.306;2023-04-01T03:17:40;7.53;;;5.27;;
18899;SDS011;9582;52.018;6.306;2023-04-01T03:20:09;10.83;;;5.80;;
18899;SDS011;9582;52.018;6.306;2023-04-01T03:22:37;10.63;;;5.77;;
18899;SDS011;9582;52.018;6.306;2023-04-01T03:25:04;9.73;;;5.60;;
18899;SDS011;9582;52.018;6.306;2023-04-01T03:27:32;13.17;;;6.43;;
18899;SDS011;9582;52.018;6.306;2023-04-01T03:29:59;8.40;;;5.60;;
18899;SDS011;9582;52.018;6.306;2023-04-01T03:32:28;8.90;;;5.67;;
18899;SDS011;9582;52.018;6.306;2023-04-01T03:34:54;9.60;;;5.50;;
18899;SDS011;9582;52.018;6.306;2023-04-01T03:37:21;8.10;;;5.20;;
18899;SDS011;9582;52.018;6.306;2023-04-01T03:39:50;8.50;;;5.40;;
18899;SDS011;9582;52.018;6.306;2023-04-01T03:42:16;10.43;;;6.40;;
18899;SDS011;9582;52.018;6.306;2023-04-01T03:44:43;11.57;;;7.50;;
18899;SDS011;9582;52.018;6.306;2023-04-01T03:47:10;5.13;;;4.13;;
18899;SDS011;9582;52.018;6.306;2023-04-01T03:49:38;6.20;;;4.40;;
18899;SDS011;9582;52.018;6.306;2023-04-01T03:52:07;7.37;;;4.73;;
18899;SDS011;9582;52.018;6.306;2023-04-01T03:54:35;7.00;;;4.27;;
18899;SDS011;9582;52.018;6.306;2023-04-01T03:57:02;7.13;;;4.30;;
18899;SDS011;9582;52.018;6.306;2023-04-01T03:59:29;6.30;;;4.87;;
18899;SDS011;9582;52.018;6.306;2023-04-01T04:01:55;6.80;;;4.57;;
18899;SDS011;9582;52.018;6.306;2023-04-01T04:04:22;6.87;;;4.60;;
18899;SDS011;9582;52.018;6.306;2023-04-01T04:06:50;7.13;;;5.07;;
18899;SDS011;9582;52.018;6.306;2023-04-01T04:09:18;10.10;;;5.00;;
18899;SDS011;9582;52.018;6.306;2023-04-01T04:11:44;8.33;;;5.43;;
18899;SDS011;9582;52.018;6.306;2023-04-01T04:14:11;9.07;;;5.67;;
18899;SDS011;9582;52.018;6.306;2023-04-01T04:16:37;8.70;;;5.60;;
18899;SDS011;9582;52.018;6.306;2023-04-01T04:19:05;10.17;;;5.83;;
18899;SDS011;9582;52.018;6.306;2023-04-01T04:21:32;10.20;;;6.23;;
18899;SDS011;9582;52.018;6.306;2023-04-01T04:24:00;8.53;;;5.97;;
18899;SDS011;9582;52.018;6.306;2023-04-01T04:26:38;9.17;;;6.10;;
18899;SDS011;9582;52.018;6.306;2023-04-01T04:29:05;8.30;;;5.93;;
18899;SDS011;9582;52.018;6.306;2023-04-01T04:31:31;9.00;;;5.93;;
18899;SDS011;9582;52.018;6.306;2023-04-01T04:33:59;9.17;;;5.83;;
18899;SDS011;9582;52.018;6.306;2023-04-01T04:36:26;7.77;;;5.43;;
18899;SDS011;9582;52.018;6.306;2023-04-01T04:38:53;6.40;;;4.60;;
18899;SDS011;9582;52.018;6.306;2023-04-01T04:41:21;7.87;;;5.50;;
18899;SDS011;9582;52.018;6.306;2023-04-01T04:43:49;6.83;;;4.90;;
18899;SDS011;9582;52.018;6.306;2023-04-01T04:46:18;7.43;;;5.10;;
18899;SDS011;9582;52.018;6.306;2023-04-01T04:48:47;9.77;;;5.60;;
18899;SDS011;9582;52.018;6.306;2023-04-01T04:51:14;7.30;;;4.90;;
18899;SDS011;9582;52.018;6.306;2023-04-01T04:53:41;7.80;;;5.07;;
18899;SDS011;9582;52.018;6.306;2023-04-01T04:56:08;7.77;;;5.37;;
18899;SDS011;9582;52.018;6.306;2023-04-01T04:58:47;7.73;;;4.97;;
18899;SDS011;9582;52.018;6.306;2023-04-01T05:01:17;8.87;;;6.00;;
18899;SDS011;9582;52.018;6.306;2023-04-01T05:03:44;7.13;;;4.63;;
18899;SDS011;9582;52.018;6.306;2023-04-01T05:06:12;7.83;;;4.83;;
18899;SDS011;9582;52.018;6.306;2023-04-01T05:08:40;7.13;;;4.57;;
18899;SDS011;9582;52.018;6.306;2023-04-01T05:11:09;6.60;;;4.73;;
18899;SDS011;9582;52.018;6.306;2023-04-01T05:13:37;7.23;;;4.70;;
18899;SDS011;9582;52.018;6.306;2023-04-01T05:16:07;7.67;;;4.80;;
18899;SDS011;9582;52.018;6.306;2023-04-01T05:18:35;6.33;;;4.90;;
18899;SDS011;9582;52.018;6.306;2023-04-01T05:21:02;8.37;;;5.17;;
18899;SDS011;9582;52.018;6.306;2023-04-01T05:23:30;5.60;;;4.00;;
18899;SDS011;9582;52.018;6.306;2023-04-01T05:25:57;5.57;;;4.03;;
18899;SDS011;9582;52.018;6.306;2023-04-01T05:28:24;5.43;;;3.93;;
18899;SDS011;9582;52.018;6.306;2023-04-01T05:30:51;7.63;;;5.10;;
18899;SDS011;9582;52.018;6.306;2023-04-01T05:33:24;7.90;;;5.20;;
18899;SDS011;9582;52.018;6.306;2023-04-01T05:35:51;6.80;;;4.63;;
18899;SDS011;9582;52.018;6.306;2023-04-01T05:38:17;6.90;;;4.57;;
18899;SDS011;9582;52.018;6.306;2023-04-01T05:40:44;8.17;;;5.40;;
18899;SDS011;9582;52.018;6.306;2023-04-01T05:43:11;7.13;;;4.93;;
18899;SDS011;9582;52.018;6.306;2023-04-01T05:45:38;7.70;;;5.00;;
18899;SDS011;9582;52.018;6.306;2023-04-01T05:48:26;7.03;;;5.37;;
18899;SDS011;9582;52.018;6.306;2023-04-01T05:50:53;7.90;;;5.47;;
18899;SDS011;9582;52.018;6.306;2023-04-01T05:53:19;9.90;;;5.70;;
18899;SDS011;9582;52.018;6.306;2023-04-01T05:55:47;7.67;;;5.20;;
18899;SDS011;9582;52.018;6.306;2023-04-01T05:58:14;8.20;;;5.53;;
18899;SDS011;9582;52.018;6.306;2023-04-01T06:00:43;9.07;;;5.77;;
18899;SDS011;9582;52.018;6.306;2023-04-01T06:03:11;7.17;;;5.37;;
18899;SDS011;9582;52.018;6.306;2023-04-01T06:05:40;8.00;;;5.50;;
18899;SDS011;9582;52.018;6.306;2023-04-01T06:08:10;8.17;;;5.30;;
18899;SDS011;9582;52.018;6.306;2023-04-01T06:10:40;9.57;;;5.57;;
18899;SDS011;9582;52.018;6.306;2023-04-01T06:13:18;9.40;;;5.73;;
18899;SDS011;9582;52.018;6.306;2023-04-01T06:15:57;13.03;;;6.70;;
18899;SDS011;9582;52.018;6.306;2023-04-01T06:21:40;11.23;;;6.93;;
18899;SDS011;9582;52.018;6.306;2023-04-01T06:24:30;11.53;;;7.47;;
18899;SDS011;9582;52.018;6.306;2023-04-01T06:27:11;14.33;;;7.90;;
18899;SDS011;9582;52.018;6.306;2023-04-01T06:29:50;12.70;;;8.57;;
18899;SDS011;9582;52.018;6.306;2023-04-01T06:32:29;12.93;;;7.97;;
18899;SDS011;9582;52.018;6.306;2023-04-01T06:38:04;12.30;;;7.47;;
18899;SDS011;9582;52.018;6.306;2023-04-01T06:43:42;11.17;;;7.40;;
18899;SDS011;9582;52.018;6.306;2023-04-01T06:46:18;11.13;;;7.90;;
18899;SDS011;9582;52.018;6.306;2023-04-01T06:49:19;11.13;;;7.63;;
18899;SDS011;9582;52.018;6.306;2023-04-01T06:52:15;10.23;;;6.70;;
18899;SDS011;9582;52.018;6.306;2023-04-01T06:55:15;12.13;;;7.47;;
18899;SDS011;9582;52.018;6.306;2023-04-01T06:58:18;12.23;;;7.77;;
18899;SDS011;9582;52.018;6.306;2023-04-01T07:00:48;11.63;;;7.00;;
18899;SDS011;9582;52.018;6.306;2023-04-01T07:03:20;9.37;;;6.27;;
18899;SDS011;9582;52.018;6.306;2023-04-01T07:05:49;11.80;;;6.90;;
18899;SDS011;9582;52.018;6.306;2023-04-01T07:08:18;12.90;;;7.10;;
18899;SDS011;9582;52.018;6.306;2023-04-01T07:10:52;14.03;;;7.23;;
18899;SDS011;9582;52.018;6.306;2023-04-01T07:13:42;13.57;;;6.90;;
18899;SDS011;9582;52.018;6.306;2023-04-01T07:16:16;14.03;;;6.87;;
18899;SDS011;9582;52.018;6.306;2023-04-01T07:18:47;12.73;;;7.17;;
18899;SDS011;9582;52.018;6.306;2023-04-01T07:21:22;17.33;;;8.37;;
18899;SDS011;9582;52.018;6.306;2023-04-01T07:23:54;12.80;;;7.17;;
18899;SDS011;9582;52.018;6.306;2023-04-01T07:26:42;15.60;;;7.43;;
18899;SDS011;9582;52.018;6.306;2023-04-01T07:29:12;13.13;;;7.40;;
18899;SDS011;9582;52.018;6.306;2023-04-01T07:32:05;14.20;;;7.53;;
18899;SDS011;9582;52.018;6.306;2023-04-01T07:34:40;13.03;;;7.70;;
18899;SDS011;9582;52.018;6.306;2023-04-01T07:37:15;13.07;;;7.03;;
18899;SDS011;9582;52.018;6.306;2023-04-01T07:39:48;12.40;;;6.73;;
18899;SDS011;9582;52.018;6.306;2023-04-01T07:42:41;13.90;;;7.17;;
18899;SDS011;9582;52.018;6.306;2023-04-01T07:45:20;13.67;;;7.33;;
18899;SDS011;9582;52.018;6.306;2023-04-01T07:48:01;10.27;;;6.33;;
18899;SDS011;9582;52.018;6.306;2023-04-01T07:50:41;15.43;;;8.50;;
18899;SDS011;9582;52.018;6.306;2023-04-01T07:53:17;15.60;;;8.00;;
18899;SDS011;9582;52.018;6.306;2023-04-01T07:55:53;13.13;;;8.23;;
18899;SDS011;9582;52.018;6.306;2023-04-01T07:58:34;15.20;;;8.43;;
18899;SDS011;9582;52.018;6.306;2023-04-01T08:01:12;12.30;;;6.80;;
18899;SDS011;9582;52.018;6.306;2023-04-01T08:04:01;11.47;;;7.13;;
18899;SDS011;9582;52.018;6.306;2023-04-01T08:06:42;11.80;;;6.97;;
18899;SDS011;9582;52.018;6.306;2023-04-01T08:09:17;14.77;;;7.77;;
18899;SDS011;9582;52.018;6.306;2023-04-01T08:12:13;15.27;;;7.93;;
18899;SDS011;9582;52.018;6.306;2023-04-01T08:15:04;11.33;;;6.80;;
18899;SDS011;9582;52.018;6.306;2023-04-01T08:18:09;15.43;;;7.60;;
18899;SDS011;9582;52.018;6.306;2023-04-01T08:20:42;14.83;;;7.83;;
18899;SDS011;9582;52.018;6.306;2023-04-01T08:23:13;15.77;;;8.43;;
18899;SDS011;9582;52.018;6.306;2023-04-01T08:25:45;16.37;;;8.23;;
18899;SDS011;9582;52.018;6.306;2023-04-01T08:28:17;14.40;;;7.47;;
18899;SDS011;9582;52.018;6.306;2023-04-01T08:30:52;16.90;;;7.70;;
18899;SDS011;9582;52.018;6.306;2023-04-01T08:33:24;14.57;;;7.70;;
18899;SDS011;9582;52.018;6.306;2023-04-01T08:36:01;15.70;;;7.40;;
18899;SDS011;9582;52.018;6.306;2023-04-01T08:38:33;13.57;;;7.53;;
18899;SDS011;9582;52.018;6.306;2023-04-01T08:41:14;13.57;;;7.27;;
18899;SDS011;9582;52.018;6.306;2023-04-01T08:44:21;16.93;;;8.10;;
18899;SDS011;9582;52.018;6.306;2023-04-01T08:47:21;14.57;;;7.60;;
18899;SDS011;9582;52.018;6.306;2023-04-01T08:50:20;15.00;;;7.23;;
18899;SDS011;9582;52.018;6.306;2023-04-01T08:53:15;14.53;;;7.77;;
18899;SDS011;9582;52.018;6.306;2023-04-01T08:55:56;15.37;;;7.37;;
18899;SDS011;9582;52.018;6.306;2023-04-01T09:01:36;14.93;;;7.70;;
18899;SDS011;9582;52.018;6.306;2023-04-01T09:04:38;10.90;;;5.77;;
18899;SDS011;9582;52.018;6.306;2023-04-01T09:07:20;15.17;;;7.60;;
18899;SDS011;9582;52.018;6.306;2023-04-01T09:10:06;16.93;;;7.40;;
18899;SDS011;9582;52.018;6.306;2023-04-01T09:12:53;15.07;;;7.30;;
18899;SDS011;9582;52.018;6.306;2023-04-01T09:15:42;18.20;;;8.23;;
18899;SDS011;9582;52.018;6.306;2023-04-01T09:18:30;14.93;;;7.20;;
18899;SDS011;9582;52.018;6.306;2023-04-01T09:21:14;15.63;;;7.60;;
18899;SDS011;9582;52.018;6.306;2023-04-01T09:24:08;16.47;;;8.47;;
18899;SDS011;9582;52.018;6.306;2023-04-01T09:26:54;15.60;;;7.57;;
18899;SDS011;9582;52.018;6.306;2023-04-01T09:29:34;16.43;;;7.83;;
18899;SDS011;9582;52.018;6.306;2023-04-01T09:32:24;14.23;;;7.40;;
18899;SDS011;9582;52.018;6.306;2023-04-01T09:35:18;14.80;;;7.80;;
18899;SDS011;9582;52.018;6.306;2023-04-01T09:37:53;12.03;;;7.73;;
18899;SDS011;9582;52.018;6.306;2023-04-01T09:40:31;14.57;;;7.47;;
18899;SDS011;9582;52.018;6.306;2023-04-01T09:48:54;10.50;;;7.00;;
18899;SDS011;9582;52.018;6.306;2023-04-01T09:51:43;10.20;;;6.90;;
18899;SDS011;9582;52.018;6.306;2023-04-01T09:54:26;11.23;;;7.33;;
18899;SDS011;9582;52.018;6.306;2023-04-01T10:03:31;7.73;;;5.60;;
18899;SDS011;9582;52.018;6.306;2023-04-01T10:06:48;7.37;;;5.10;;
18899;SDS011;9582;52.018;6.306;2023-04-01T10:09:51;6.10;;;4.80;;
18899;SDS011;9582;52.018;6.306;2023-04-01T10:12:46;7.03;;;4.60;;
18899;SDS011;9582;52.018;6.306;2023-04-01T10:15:34;7.50;;;5.13;;
18899;SDS011;9582;52.018;6.306;2023-04-01T10:18:22;11.03;;;5.67;;
18899;SDS011;9582;52.018;6.306;2023-04-01T10:24:31;7.37;;;4.80;;
18899;SDS011;9582;52.018;6.306;2023-04-01T10:27:28;7.03;;;5.33;;
18899;SDS011;9582;52.018;6.306;2023-04-01T10:30:45;8.23;;;5.47;;
18899;SDS011;9582;52.018;6.306;2023-04-01T10:36:39;7.78;;;5.13;;
18899;SDS011;9582;52.018;6.306;2023-04-01T10:43:33;9.23;;;5.50;;
18899;SDS011;9582;52.018;6.306;2023-04-01T10:46:29;6.40;;;4.85;;
18899;SDS011;9582;52.018;6.306;2023-04-01T10:49:23;5.28;;;4.05;;
18899;SDS011;9582;52.018;6.306;2023-04-01T10:55:44;6.87;;;4.57;;
18899;SDS011;9582;52.018;6.306;2023-04-01T11:05:45;6.00;;;4.47;;
18899;SDS011;9582;52.018;6.306;2023-04-01T11:08:44;5.30;;;4.30;;
18899;SDS011;9582;52.018;6.306;2023-04-01T11:21:12;5.47;;;4.30;;
18899;SDS011;9582;52.018;6.306;2023-04-01T11:30:20;5.30;;;4.10;;
18899;SDS011;9582;52.018;6.306;2023-04-01T11:32:57;5.07;;;4.20;;
18899;SDS011;9582;52.018;6.306;2023-04-01T11:35:43;5.60;;;4.15;;
18899;SDS011;9582;52.018;6.306;2023-04-01T11:38:35;5.97;;;4.20;;
18899;SDS011;9582;52.018;6.306;2023-04-01T11:41:32;3.35;;;3.03;;
18899;SDS011;9582;52.018;6.306;2023-04-01T11:44:24;4.47;;;3.60;;
18899;SDS011;9582;52.018;6.306;2023-04-01T11:47:07;4.93;;;3.97;;
18899;SDS011;9582;52.018;6.306;2023-04-01T11:49:48;4.70;;;3.83;;
18899;SDS011;9582;52.018;6.306;2023-04-01T11:52:47;3.38;;;2.63;;
18899;SDS011;9582;52.018;6.306;2023-04-01T11:55:32;2.30;;;2.10;;
18899;SDS011;9582;52.018;6.306;2023-04-01T11:58:18;2.65;;;2.45;;
18899;SDS011;9582;52.018;6.306;2023-04-01T12:03:54;3.22;;;2.30;;
18899;SDS011;9582;52.018;6.306;2023-04-01T12:06:39;2.22;;;2.00;;
18899;SDS011;9582;52.018;6.306;2023-04-01T12:09:12;3.20;;;2.90;;
18899;SDS011;9582;52.018;6.306;2023-04-01T12:11:50;2.30;;;1.85;;
18899;SDS011;9582;52.018;6.306;2023-04-01T12:14:31;2.75;;;2.45;;
18899;SDS011;9582;52.018;6.306;2023-04-01T12:17:06;1.75;;;1.65;;
18899;SDS011;9582;52.018;6.306;2023-04-01T12:19:42;2.80;;;2.00;;
18899;SDS011;9582;52.018;6.306;2023-04-01T12:22:27;1.88;;;1.77;;
18899;SDS011;9582;52.018;6.306;2023-04-01T12:25:06;2.60;;;1.92;;
18899;SDS011;9582;52.018;6.306;2023-04-01T12:27:48;3.03;;;2.42;;
18899;SDS011;9582;52.018;6.306;2023-04-01T12:30:30;2.90;;;2.05;;
18899;SDS011;9582;52.018;6.306;2023-04-01T12:33:13;2.00;;;1.80;;
18899;SDS011;9582;52.018;6.306;2023-04-01T12:35:53;1.98;;;1.80;;
18899;SDS011;9582;52.018;6.306;2023-04-01T12:38:30;1.70;;;1.60;;
18899;SDS011;9582;52.018;6.306;2023-04-01T12:41:08;3.95;;;1.98;;
18899;SDS011;9582;52.018;6.306;2023-04-01T12:43:51;1.83;;;1.73;;
18899;SDS011;9582;52.018;6.306;2023-04-01T12:46:32;2.95;;;2.40;;
18899;SDS011;9582;52.018;6.306;2023-04-01T12:49:31;2.55;;;2.10;;
18899;SDS011;9582;52.018;6.306;2023-04-01T12:52:10;1.83;;;1.67;;
18899;SDS011;9582;52.018;6.306;2023-04-01T12:54:45;2.10;;;1.85;;
18899;SDS011;9582;52.018;6.306;2023-04-01T12:57:43;1.80;;;1.70;;
18899;SDS011;9582;52.018;6.306;2023-04-01T13:00:30;1.85;;;1.73;;
18899;SDS011;9582;52.018;6.306;2023-04-01T13:03:20;1.70;;;1.60;;
18899;SDS011;9582;52.018;6.306;2023-04-01T13:06:13;2.70;;;1.70;;
18899;SDS011;9582;52.018;6.306;2023-04-01T13:08:52;2.35;;;1.73;;
18899;SDS011;9582;52.018;6.306;2023-04-01T13:11:25;3.35;;;1.77;;
18899;SDS011;9582;52.018;6.306;2023-04-01T13:14:04;2.80;;;2.45;;
18899;SDS011;9582;52.018;6.306;2023-04-01T13:16:59;2.10;;;1.70;;
18899;SDS011;9582;52.018;6.306;2023-04-01T13:19:35;2.00;;;1.73;;
18899;SDS011;9582;52.018;6.306;2023-04-01T13:22:09;3.08;;;2.17;;
18899;SDS011;9582;52.018;6.306;2023-04-01T13:24:46;3.83;;;2.00;;
18899;SDS011;9582;52.018;6.306;2023-04-01T13:27:20;2.80;;;2.00;;
18899;SDS011;9582;52.018;6.306;2023-04-01T13:29:57;2.75;;;1.88;;
18899;SDS011;9582;52.018;6.306;2023-04-01T13:32:36;1.48;;;1.35;;
18899;SDS011;9582;52.018;6.306;2023-04-01T13:35:23;1.77;;;1.13;;
18899;SDS011;9582;52.018;6.306;2023-04-01T13:38:05;1.42;;;0.95;;
18899;SDS011;9582;52.018;6.306;2023-04-01T13:40:45;1.73;;;0.93;;
18899;SDS011;9582;52.018;6.306;2023-04-01T13:43:21;2.40;;;1.40;;
18899;SDS011;9582;52.018;6.306;2023-04-01T13:46:04;2.20;;;1.43;;
18899;SDS011;9582;52.018;6.306;2023-04-01T13:48:50;1.70;;;1.43;;
18899;SDS011;9582;52.018;6.306;2023-04-01T13:51:35;1.70;;;1.23;;
18899;SDS011;9582;52.018;6.306;2023-04-01T13:54:30;1.77;;;1.67;;
18899;SDS011;9582;52.018;6.306;2023-04-01T13:57:20;2.60;;;1.70;;
18899;SDS011;9582;52.018;6.306;2023-04-01T14:00:03;1.80;;;1.70;;
18899;SDS011;9582;52.018;6.306;2023-04-01T14:05:46;1.97;;;1.80;;
18899;SDS011;9582;52.018;6.306;2023-04-01T14:08:28;2.97;;;2.17;;
18899;SDS011;9582;52.018;6.306;2023-04-01T14:11:09;1.77;;;1.67;;
18899;SDS011;9582;52.018;6.306;2023-04-01T14:13:42;2.83;;;1.83;;
18899;SDS011;9582;52.018;6.306;2023-04-01T14:16:26;2.40;;;2.20;;
18899;SDS011;9582;52.018;6.306;2023-04-01T14:19:22;2.37;;;1.63;;
18899;SDS011;9582;52.018;6.306;2023-04-01T14:22:05;2.27;;;2.07;;
18899;SDS011;9582;52.018;6.306;2023-04-01T14:24:45;2.23;;;2.03;;
18899;SDS011;9582;52.018;6.306;2023-04-01T14:27:31;2.23;;;2.03;;
18899;SDS011;9582;52.018;6.306;2023-04-01T14:30:13;2.37;;;2.17;;
18899;SDS011;9582;52.018;6.306;2023-04-01T14:33:10;3.13;;;2.10;;
18899;SDS011;9582;52.018;6.306;2023-04-01T14:35:49;3.03;;;2.50;;
18899;SDS011;9582;52.018;6.306;2023-04-01T14:38:26;2.83;;;2.60;;
18899;SDS011;9582;52.018;6.306;2023-04-01T14:41:00;2.57;;;1.90;;
18899;SDS011;9582;52.018;6.306;2023-04-01T14:49:47;2.87;;;2.67;;
18899;SDS011;9582;52.018;6.306;2023-04-01T14:52:17;3.47;;;2.87;;
18899;SDS011;9582;52.018;6.306;2023-04-01T14:54:52;2.80;;;2.60;;
18899;SDS011;9582;52.018;6.306;2023-04-01T14:57:23;2.70;;;2.50;;
18899;SDS011;9582;52.018;6.306;2023-04-01T14:59:51;2.73;;;2.50;;
18899;SDS011;9582;52.018;6.306;2023-04-01T15:05:15;2.80;;;2.60;;
18899;SDS011;9582;52.018;6.306;2023-04-01T15:13:48;3.20;;;2.90;;
18899;SDS011;9582;52.018;6.306;2023-04-01T15:16:31;3.70;;;2.97;;
18899;SDS011;9582;52.018;6.306;2023-04-01T15:19:05;6.10;;;3.00;;
18899;SDS011;9582;52.018;6.306;2023-04-01T15:24:37;3.20;;;2.90;;
18899;SDS011;9582;52.018;6.306;2023-04-01T15:27:15;2.80;;;2.60;;
18899;SDS011;9582;52.018;6.306;2023-04-01T15:29:54;3.57;;;2.70;;
18899;SDS011;9582;52.018;6.306;2023-04-01T15:32:31;3.83;;;2.43;;
18899;SDS011;9582;52.018;6.306;2023-04-01T15:35:14;3.43;;;3.00;;
18899;SDS011;9582;52.018;6.306;2023-04-01T15:37:51;3.63;;;3.33;;
18899;SDS011;9582;52.018;6.306;2023-04-01T15:40:22;3.57;;;3.27;;
18899;SDS011;9582;52.018;6.306;2023-04-01T15:42:58;3.80;;;3.27;;
18899;SDS011;9582;52.018;6.306;2023-04-01T15:45:36;3.40;;;3.10;;
18899;SDS011;9582;52.018;6.306;2023-04-01T15:48:16;3.90;;;3.60;;
18899;SDS011;9582;52.018;6.306;2023-04-01T15:56:53;3.73;;;3.43;;
18899;SDS011;9582;52.018;6.306;2023-04-01T15:59:39;3.97;;;3.50;;
18899;SDS011;9582;52.018;6.306;2023-04-01T16:02:18;3.60;;;3.30;;
18899;SDS011;9582;52.018;6.306;2023-04-01T16:04:52;4.00;;;3.60;;
18899;SDS011;9582;52.018;6.306;2023-04-01T16:07:28;4.47;;;4.07;;
18899;SDS011;9582;52.018;6.306;2023-04-01T16:13:10;5.73;;;3.87;;
18899;SDS011;9582;52.018;6.306;2023-04-01T16:15:51;4.43;;;4.03;;
18899;SDS011;9582;52.018;6.306;2023-04-01T16:18:31;4.17;;;3.77;;
18899;SDS011;9582;52.018;6.306;2023-04-01T16:21:26;4.27;;;3.87;;
18899;SDS011;9582;52.018;6.306;2023-04-01T16:24:03;4.37;;;3.97;;
18899;SDS011;9582;52.018;6.306;2023-04-01T16:26:39;3.90;;;3.50;;
18899;SDS011;9582;52.018;6.306;2023-04-01T16:29:17;4.33;;;3.77;;
18899;SDS011;9582;52.018;6.306;2023-04-01T16:31:52;3.70;;;3.40;;
18899;SDS011;9582;52.018;6.306;2023-04-01T16:34:27;4.27;;;3.87;;
18899;SDS011;9582;52.018;6.306;2023-04-01T16:37:03;4.47;;;3.80;;
18899;SDS011;9582;52.018;6.306;2023-04-01T16:39:41;4.40;;;4.00;;
18899;SDS011;9582;52.018;6.306;2023-04-01T16:42:16;4.97;;;4.40;;
18899;SDS011;9582;52.018;6.306;2023-04-01T16:44:50;4.07;;;3.67;;
18899;SDS011;9582;52.018;6.306;2023-04-01T16:47:22;4.47;;;4.07;;
18899;SDS011;9582;52.018;6.306;2023-04-01T16:49:54;4.80;;;4.30;;
18899;SDS011;9582;52.018;6.306;2023-04-01T16:52:30;5.57;;;4.13;;
18899;SDS011;9582;52.018;6.306;2023-04-01T16:55:03;4.50;;;4.10;;
18899;SDS011;9582;52.018;6.306;2023-04-01T16:57:43;4.80;;;4.40;;
18899;SDS011;9582;52.018;6.306;2023-04-01T17:00:16;5.57;;;5.07;;
18899;SDS011;9582;52.018;6.306;2023-04-01T17:02:51;5.30;;;4.80;;
18899;SDS011;9582;52.018;6.306;2023-04-01T17:05:37;5.33;;;4.83;;
18899;SDS011;9582;52.018;6.306;2023-04-01T17:08:10;5.43;;;4.87;;
18899;SDS011;9582;52.018;6.306;2023-04-01T17:10:46;4.67;;;4.03;;
18899;SDS011;9582;52.018;6.306;2023-04-01T17:13:27;5.97;;;5.00;;
18899;SDS011;9582;52.018;6.306;2023-04-01T17:18:58;6.13;;;5.03;;
18899;SDS011;9582;52.018;6.306;2023-04-01T17:21:37;4.63;;;4.10;;
18899;SDS011;9582;52.018;6.306;2023-04-01T17:24:17;5.00;;;4.50;;
18899;SDS011;9582;52.018;6.306;2023-04-01T17:26:56;5.40;;;4.80;;
18899;SDS011;9582;52.018;6.306;2023-04-01T17:29:40;6.30;;;5.70;;
18899;SDS011;9582;52.018;6.306;2023-04-01T17:32:19;4.93;;;3.67;;
18899;SDS011;9582;52.018;6.306;2023-04-01T17:35:02;6.90;;;6.20;;
18899;SDS011;9582;52.018;6.306;2023-04-01T17:37:38;6.60;;;5.60;;